createdAt,value
2018-12-21T00:02:21.056Z,96529.16
2018-12-21T00:04:51.078Z,96523.99
2018-12-21T00:07:21.085Z,96521.59
2018-12-21T00:09:51.193Z,96523.08
2018-12-21T00:12:21.192Z,96522.44
2018-12-21T00:14:51.197Z,96518.05
2018-12-21T00:17:21.253Z,96521.15
2018-12-21T00:19:51.286Z,96513.58
2018-12-21T00:22:21.355Z,96515.64
2018-12-21T00:24:51.344Z,96508.95
2018-12-21T00:27:21.632Z,96515.91
2018-12-21T00:29:51.644Z,96504.49
2018-12-21T00:32:26.994Z,96511.03
2018-12-21T00:35:02.356Z,96505.91
2018-12-21T00:37:37.828Z,96502.95
2018-12-21T00:40:13.308Z,96500.66
2018-12-21T00:42:51.729Z,96502.69
2018-12-21T00:45:26.974Z,96499.27
2018-12-21T00:47:57.107Z,96492.40
2018-12-21T00:50:27.589Z,96493.02
2018-12-21T00:52:58.000Z,96506.20
2018-12-21T00:55:28.126Z,96502.67
2018-12-21T00:57:58.150Z,96501.41
2018-12-21T01:00:28.292Z,96499.35
2018-12-21T01:02:58.305Z,96510.13
2018-12-21T01:05:28.362Z,96509.78
2018-12-21T01:07:58.473Z,96509.41
2018-12-21T01:10:28.514Z,96519.16
2018-12-21T01:13:20.186Z,96520.25
2018-12-21T01:15:50.314Z,96532.16
2018-12-21T01:18:24.016Z,96529.70
2018-12-21T01:20:54.672Z,96536.06
2018-12-21T01:23:27.376Z,96528.61
2018-12-21T01:25:57.490Z,96545.48
2018-12-21T01:28:28.650Z,96531.24
2018-12-21T01:30:59.473Z,96520.66
2018-12-21T01:33:33.275Z,96537.73
2018-12-21T01:36:03.990Z,96535.26
2018-12-21T01:38:34.670Z,96532.02
2018-12-21T01:41:05.465Z,96543.11
2018-12-21T01:43:35.604Z,96534.16
2018-12-21T01:46:05.620Z,96524.92
2018-12-21T01:48:36.533Z,96533.86
2018-12-21T01:51:08.151Z,96525.75
2018-12-21T01:53:38.792Z,96523.59
2018-12-21T01:56:09.339Z,96523.41
2018-12-21T01:58:40.093Z,96520.76
2018-12-21T02:01:13.461Z,96525.41
2018-12-21T02:03:44.836Z,96517.09
2018-12-21T02:06:18.615Z,96519.72
2018-12-21T02:08:50.927Z,96529.20
2018-12-21T02:11:22.719Z,96537.78
2018-12-21T02:13:53.798Z,96497.82
2018-12-21T02:16:29.045Z,96515.63
2018-12-21T02:18:59.444Z,96519.05
2018-12-21T02:21:32.084Z,96515.95
2018-12-21T02:24:02.505Z,96500.41
2018-12-21T02:26:33.021Z,96503.67
2018-12-21T02:29:03.732Z,96495.95
2018-12-21T02:31:33.801Z,96494.86
2018-12-21T02:34:04.713Z,96493.36
2018-12-21T02:36:34.731Z,96496.31
2018-12-21T02:39:07.052Z,96492.09
2018-12-21T02:41:39.834Z,96481.86
2018-12-21T02:44:09.844Z,96472.53
2018-12-21T02:46:40.839Z,96467.26
2018-12-21T02:49:11.922Z,96473.42
2018-12-21T02:51:44.893Z,96474.44
2018-12-21T02:54:22.140Z,96468.09
2018-12-21T02:56:54.876Z,96472.55
2018-12-21T02:59:25.806Z,96468.83
2018-12-21T03:01:57.876Z,96470.36
2018-12-21T03:04:34.892Z,96473.89
2018-12-21T03:07:05.203Z,96477.28
2018-12-21T03:09:38.131Z,96471.91
2018-12-21T03:12:08.945Z,96475.85
2018-12-21T03:14:38.969Z,96472.94
2018-12-21T03:17:10.312Z,96463.85
2018-12-21T03:19:41.001Z,96465.66
2018-12-21T03:22:15.119Z,96457.26
2018-12-21T03:24:48.169Z,96466.70
2018-12-21T03:27:18.993Z,96466.91
2018-12-21T03:29:49.026Z,96467.43
2018-12-21T03:32:19.831Z,96461.92
2018-12-21T03:34:50.332Z,96472.48
2018-12-21T03:37:20.919Z,96464.78
2018-12-21T03:39:51.131Z,96459.85
2018-12-21T03:42:30.652Z,96455.95
2018-12-21T03:45:04.288Z,96450.78
2018-12-21T03:47:37.905Z,96440.31
2018-12-21T03:50:08.842Z,96450.78
2018-12-21T03:52:39.385Z,96453.10
2018-12-21T03:55:09.904Z,96457.03
2018-12-21T03:57:40.136Z,96456.37
2018-12-21T04:00:11.346Z,96462.97
2018-12-21T04:02:41.886Z,96459.85
2018-12-21T04:05:12.218Z,96456.55
2018-12-21T04:07:43.106Z,96459.63
2018-12-21T04:10:19.982Z,96462.58
2018-12-21T04:12:50.063Z,96459.28
2018-12-21T04:15:21.339Z,96462.27
2018-12-21T04:17:51.380Z,96459.28
2018-12-21T04:20:28.270Z,96459.22
2018-12-21T04:22:59.288Z,96459.69
2018-12-21T04:25:30.289Z,96452.98
2018-12-21T04:28:00.289Z,96453.75
2018-12-21T04:30:34.871Z,96455.02
2018-12-21T04:33:12.253Z,96444.91
2018-12-21T04:35:42.275Z,96450.08
2018-12-21T04:38:13.294Z,96451.05
2018-12-21T04:40:43.385Z,96460.00
2018-12-21T04:43:14.496Z,96454.13
2018-12-21T04:45:50.172Z,96452.44
2018-12-21T04:48:22.343Z,96447.93
2018-12-21T04:50:52.750Z,96452.55
2018-12-21T04:53:22.826Z,96450.45
2018-12-21T04:55:59.041Z,96443.12
2018-12-21T04:58:29.492Z,96448.11
2018-12-21T05:00:59.542Z,96441.31
2018-12-21T05:03:31.481Z,96448.42
2018-12-21T05:06:03.350Z,96441.34
2018-12-21T05:08:33.721Z,96445.19
2018-12-21T05:11:09.756Z,96444.41
2018-12-21T05:13:42.403Z,96439.77
2018-12-21T05:16:13.527Z,96442.46
2018-12-21T05:18:47.449Z,96434.83
2018-12-21T05:21:21.145Z,96422.96
2018-12-21T05:23:51.747Z,96422.96
2018-12-21T05:26:22.462Z,96415.39
2018-12-21T05:28:53.579Z,96420.41
2018-12-21T05:31:30.687Z,96413.98
2018-12-21T05:34:03.442Z,96412.02
2018-12-21T05:36:35.657Z,96412.44
2018-12-21T05:39:07.042Z,96412.92
2018-12-21T05:41:39.692Z,96415.80
2018-12-21T05:44:10.437Z,96418.31
2018-12-21T05:46:40.960Z,96425.83
2018-12-21T05:49:11.674Z,96420.41
2018-12-21T05:51:41.698Z,96427.52
2018-12-21T05:54:12.714Z,96424.91
2018-12-21T05:56:43.281Z,96427.86
2018-12-21T05:59:14.058Z,96435.00
2018-12-21T06:01:44.556Z,96423.19
2018-12-21T06:04:14.612Z,96419.86
2018-12-21T06:06:45.688Z,96419.34
2018-12-21T06:09:19.531Z,96408.88
2018-12-21T06:11:49.582Z,96401.31
2018-12-21T06:14:20.790Z,96391.16
2018-12-21T06:16:51.805Z,96396.58
2018-12-21T06:19:22.833Z,96394.94
2018-12-21T06:21:55.948Z,96391.93
2018-12-21T06:24:26.831Z,96388.14
2018-12-21T06:26:57.769Z,96388.58
2018-12-21T06:29:28.745Z,96385.68
2018-12-21T06:31:58.966Z,96381.55
2018-12-21T06:34:33.782Z,96381.24
2018-12-21T06:37:05.768Z,96379.64
2018-12-21T06:39:37.816Z,96383.11
2018-12-21T06:42:11.693Z,96378.87
2018-12-21T06:44:41.892Z,96382.22
2018-12-21T06:47:11.989Z,96369.89
2018-12-21T06:49:42.908Z,96365.11
2018-12-21T06:52:13.997Z,96375.63
2018-12-21T06:54:44.630Z,96369.84
2018-12-21T06:57:14.914Z,96362.16
2018-12-21T06:59:51.832Z,96357.82
2018-12-21T07:02:23.794Z,96348.04
2018-12-21T07:04:59.482Z,96351.52
2018-12-21T07:07:30.066Z,96349.77
2018-12-21T07:10:00.250Z,96348.88
2018-12-21T07:12:31.010Z,96359.30
2018-12-21T07:15:02.981Z,96346.69
2018-12-21T07:17:33.078Z,96348.60
2018-12-21T07:20:07.055Z,96347.06
2018-12-21T07:22:38.024Z,96346.81
2018-12-21T07:25:09.116Z,96346.02
2018-12-21T07:27:39.153Z,96347.22
2018-12-21T07:30:11.490Z,96340.97
2018-12-21T07:32:43.208Z,96338.51
2018-12-21T07:35:16.318Z,96333.89
2018-12-21T07:37:48.167Z,96328.78
2018-12-21T07:40:22.341Z,96325.77
2018-12-21T07:42:58.882Z,96318.08
2018-12-21T07:45:29.721Z,96314.29
2018-12-21T07:47:59.755Z,96309.61
2018-12-21T07:50:30.221Z,96309.95
2018-12-21T07:53:01.106Z,96309.52
2018-12-21T07:55:31.180Z,96308.25
2018-12-21T07:58:02.344Z,96314.94
2018-12-21T08:00:32.493Z,96316.59
2018-12-21T08:03:03.649Z,96322.08
2018-12-21T08:05:34.152Z,96316.91
2018-12-21T08:08:05.048Z,96322.31
2018-12-21T08:10:38.013Z,96317.27
2018-12-21T08:13:09.829Z,96321.02
2018-12-21T08:15:40.432Z,96319.23
2018-12-21T08:18:13.256Z,96316.22
2018-12-21T08:20:44.285Z,96314.89
2018-12-21T08:23:15.515Z,96315.66
2018-12-21T08:25:54.193Z,96305.97
2018-12-21T08:28:25.971Z,96312.58
2018-12-21T08:30:56.377Z,96302.29
2018-12-21T08:33:33.234Z,96299.61
2018-12-21T08:36:03.338Z,96294.80
2018-12-21T08:38:34.275Z,96283.33
2018-12-21T08:44:07.047Z,96289.72
2018-12-21T08:49:38.271Z,96274.80
2018-12-21T08:52:08.383Z,96280.45
2018-12-21T08:54:39.550Z,96276.83
2018-12-21T08:57:15.209Z,96279.29
2018-12-21T08:59:46.367Z,96276.46
2018-12-21T09:02:17.366Z,96273.37
2018-12-21T09:04:57.223Z,96268.18
2018-12-21T09:07:28.284Z,96274.69
2018-12-21T09:10:00.063Z,96272.09
2018-12-21T09:12:32.669Z,96262.48
2018-12-21T09:15:05.069Z,96255.92
2018-12-21T09:17:35.562Z,96255.58
2018-12-21T09:20:15.361Z,96239.77
2018-12-21T09:22:45.421Z,96237.62
2018-12-21T09:25:16.565Z,96236.42
2018-12-21T09:27:49.552Z,96236.53
2018-12-21T09:30:20.604Z,96231.77
2018-12-21T09:32:51.773Z,96237.59
2018-12-21T09:35:22.536Z,96239.83
2018-12-21T09:37:56.053Z,96225.56
2018-12-21T09:40:26.504Z,96227.87
2018-12-21T09:42:57.960Z,96218.00
2018-12-21T09:45:28.784Z,96212.47
2018-12-21T09:47:59.740Z,96200.87
2018-12-21T09:50:33.641Z,96187.93
2018-12-21T09:53:04.674Z,96194.77
2018-12-21T09:55:35.144Z,96201.70
2018-12-21T09:58:06.957Z,96187.70
2018-12-21T10:00:38.841Z,96182.16
2018-12-21T10:03:12.646Z,96184.61
2018-12-21T10:05:43.680Z,96187.46
2018-12-21T10:08:13.751Z,96173.15
2018-12-21T10:10:50.757Z,96173.48
2018-12-21T10:13:22.679Z,96178.77
2018-12-21T10:15:59.854Z,96177.50
2018-12-21T10:18:33.675Z,96169.70
2018-12-21T10:21:03.804Z,96168.36
2018-12-21T10:23:40.677Z,96172.08
2018-12-21T10:26:12.248Z,96163.14
2018-12-21T10:28:42.832Z,96166.78
2018-12-21T10:31:13.322Z,96166.86
2018-12-21T10:33:44.061Z,96156.73
2018-12-21T10:36:14.585Z,96160.97
2018-12-21T10:38:45.097Z,96152.94
2018-12-21T10:41:15.897Z,96144.08
2018-12-21T10:43:46.576Z,96140.88
2018-12-21T10:46:17.036Z,96131.14
2018-12-21T10:48:47.752Z,96125.76
2018-12-21T10:51:17.761Z,96113.54
2018-12-21T10:53:48.943Z,96107.28
2018-12-21T10:56:22.713Z,96095.75
2018-12-21T10:58:53.025Z,96098.29
2018-12-21T11:01:23.872Z,96087.53
2018-12-21T11:03:59.747Z,96076.37
2018-12-21T11:06:32.061Z,96063.05
2018-12-21T11:09:05.770Z,96060.67
2018-12-21T11:11:36.172Z,96056.64
2018-12-21T11:14:11.910Z,96050.84
2018-12-21T11:16:43.091Z,96053.01
2018-12-21T11:19:18.821Z,96057.63
2018-12-21T11:21:50.083Z,96057.03
2018-12-21T11:24:22.954Z,96051.50
2018-12-21T11:26:54.115Z,96043.19
2018-12-21T11:29:27.113Z,96043.19
2018-12-21T11:32:00.260Z,96033.26
2018-12-21T11:34:30.553Z,96018.81
2018-12-21T11:37:00.589Z,96014.94
2018-12-21T11:39:34.300Z,96015.30
2018-12-21T11:42:08.909Z,95997.84
2018-12-21T11:44:41.129Z,95983.92
2018-12-21T11:47:16.010Z,95978.16
2018-12-21T11:49:47.383Z,95964.86
2018-12-21T11:52:18.050Z,95976.42
2018-12-21T11:54:48.249Z,95958.44
2018-12-21T11:57:19.085Z,95958.27
2018-12-21T11:59:50.286Z,95951.37
2018-12-21T12:02:26.485Z,95943.72
2018-12-21T12:04:57.192Z,95944.23
2018-12-21T12:07:28.261Z,95934.84
2018-12-21T12:10:03.229Z,95925.02
2018-12-21T12:12:35.165Z,95920.20
2018-12-21T12:15:06.725Z,95910.56
2018-12-21T12:17:37.315Z,95910.05
2018-12-21T12:20:09.441Z,95898.00
2018-12-21T12:22:41.406Z,95883.86
2018-12-21T12:25:12.346Z,95870.89
2018-12-21T12:27:42.672Z,95875.33
2018-12-21T12:30:13.298Z,95876.41
2018-12-21T12:32:43.393Z,95865.81
2018-12-21T12:35:14.400Z,95861.02
2018-12-21T12:37:45.121Z,95862.45
2018-12-21T12:40:15.325Z,95870.06
2018-12-21T12:42:46.808Z,95860.36
2018-12-21T12:45:16.847Z,95859.38
2018-12-21T12:47:47.528Z,95858.20
2018-12-21T12:50:18.107Z,95862.99
2018-12-21T12:52:48.434Z,95859.19
2018-12-21T12:55:22.249Z,95846.40
2018-12-21T12:57:52.362Z,95845.16
2018-12-21T13:00:23.588Z,95844.52
2018-12-21T13:02:57.399Z,95839.79
2018-12-21T13:05:28.412Z,95835.73
2018-12-21T13:07:59.385Z,95835.98
2018-12-21T13:10:29.889Z,95839.78
2018-12-21T13:13:00.801Z,95832.36
2018-12-21T13:15:33.893Z,95837.73
2018-12-21T13:18:07.692Z,95837.97
2018-12-21T13:20:41.356Z,95835.53
2018-12-21T13:23:12.457Z,95844.23
2018-12-21T13:25:46.432Z,95833.63
2018-12-21T13:28:16.566Z,95828.66
2018-12-21T13:30:47.498Z,95821.48
2018-12-21T13:36:17.537Z,95820.03
2018-12-21T13:38:49.677Z,95815.59
2018-12-21T13:41:22.681Z,95819.28
2018-12-21T13:43:54.217Z,95818.92
2018-12-21T13:46:26.766Z,95843.09
2018-12-21T13:48:57.640Z,95841.00
2018-12-21T13:51:29.304Z,95842.69
2018-12-21T13:54:00.300Z,95839.80
2018-12-21T13:56:32.725Z,95830.58
2018-12-21T13:59:03.657Z,95838.20
2018-12-21T14:01:33.725Z,95837.44
2018-12-21T14:07:04.134Z,95834.03
2018-12-21T14:09:35.807Z,95835.28
2018-12-21T14:12:06.757Z,95845.97
2018-12-21T14:14:37.993Z,95848.13
2018-12-21T14:17:10.080Z,95838.75
2018-12-21T14:19:41.688Z,95835.48
2018-12-21T14:22:13.178Z,95834.98
2018-12-21T14:24:43.489Z,95829.11
2018-12-21T14:27:19.739Z,95837.00
2018-12-21T14:29:50.797Z,95834.20
2018-12-21T14:32:21.949Z,95835.80
2018-12-21T14:35:00.295Z,95832.20
2018-12-21T14:37:32.112Z,95817.34
2018-12-21T14:40:08.738Z,95815.52
2018-12-21T14:42:38.784Z,95805.07
2018-12-21T14:45:10.084Z,95803.78
2018-12-21T14:47:41.505Z,95798.06
2018-12-21T14:50:15.110Z,95794.71
2018-12-21T14:52:50.962Z,95801.37
2018-12-21T14:55:21.139Z,95786.14
2018-12-21T14:57:54.803Z,95777.34
2018-12-21T15:00:25.937Z,95769.50
2018-12-21T15:02:56.517Z,95763.84
2018-12-21T15:05:27.871Z,95761.69
2018-12-21T15:08:00.828Z,95751.92
2018-12-21T15:10:31.401Z,95748.40
2018-12-21T15:13:04.169Z,95741.86
2018-12-21T15:15:38.933Z,95734.51
2018-12-21T15:18:10.977Z,95723.00
2018-12-21T15:20:43.273Z,95706.27
2018-12-21T15:23:14.149Z,95703.03
2018-12-21T15:25:46.122Z,95695.88
2018-12-21T15:28:18.082Z,95695.88
2018-12-21T15:30:49.300Z,95693.59
2018-12-21T15:33:20.237Z,95695.23
2018-12-21T15:35:51.196Z,95691.15
2018-12-21T15:38:21.261Z,95688.59
2018-12-21T15:40:52.185Z,95684.80
2018-12-21T15:43:23.216Z,95684.89
2018-12-21T15:45:56.110Z,95684.33
2018-12-21T15:48:27.230Z,95688.74
2018-12-21T15:50:58.696Z,95680.81
2018-12-21T15:53:31.195Z,95685.81
2018-12-21T15:56:01.259Z,95684.12
2018-12-21T15:58:31.289Z,95690.00
2018-12-21T16:01:01.374Z,95697.88
2018-12-21T16:03:33.217Z,95691.80
2018-12-21T16:06:04.417Z,95691.91
2018-12-21T16:08:40.885Z,95697.40
2018-12-21T16:11:17.142Z,95694.70
2018-12-21T16:13:48.273Z,95683.23
2018-12-21T16:16:19.392Z,95683.50
2018-12-21T16:18:52.437Z,95688.56
2018-12-21T16:21:23.329Z,95685.51
2018-12-21T16:23:54.406Z,95678.27
2018-12-21T16:26:24.438Z,95679.64
2018-12-21T16:28:58.365Z,95682.09
2018-12-21T16:31:29.302Z,95678.98
2018-12-21T16:34:00.512Z,95687.13
2018-12-21T16:36:40.470Z,95677.16
2018-12-21T16:39:16.594Z,95667.75
2018-12-21T16:41:47.470Z,95666.09
2018-12-21T16:44:18.431Z,95661.39
2018-12-21T16:46:58.336Z,95650.20
2018-12-21T16:49:28.408Z,95649.13
2018-12-21T16:52:00.385Z,95648.63
2018-12-21T16:54:32.475Z,95660.05
2018-12-21T16:57:03.770Z,95648.09
2018-12-21T16:59:34.589Z,95649.63
2018-12-21T17:02:10.665Z,95649.31
2018-12-21T17:04:42.400Z,95644.14
2018-12-21T17:07:21.388Z,95649.88
2018-12-21T17:09:52.593Z,95647.52
2018-12-21T17:12:24.606Z,95639.56
2018-12-21T17:14:58.763Z,95637.12
2018-12-21T17:17:29.503Z,95622.95
2018-12-21T17:19:59.557Z,95618.08
2018-12-21T17:22:30.426Z,95630.77
2018-12-21T17:25:00.589Z,95615.77
2018-12-21T17:27:31.590Z,95628.00
2018-12-21T17:30:02.397Z,95623.65
2018-12-21T17:32:32.850Z,95628.58
2018-12-21T17:38:04.241Z,95615.14
2018-12-21T17:40:35.796Z,95614.45
2018-12-21T17:43:06.234Z,95611.43
2018-12-21T17:45:36.773Z,95608.11
2018-12-21T17:48:09.246Z,95601.27
2018-12-21T17:50:43.555Z,95608.30
2018-12-21T17:53:14.740Z,95601.17
2018-12-21T17:55:45.940Z,95605.62
2018-12-21T17:58:19.746Z,95593.88
2018-12-21T18:00:50.092Z,95599.61
2018-12-21T18:03:30.276Z,95614.03
2018-12-21T18:06:00.595Z,95602.76
2018-12-21T18:08:30.723Z,95593.09
2018-12-21T18:11:01.195Z,95606.99
2018-12-21T18:13:31.836Z,95616.78
2018-12-21T18:16:03.861Z,95652.48
2018-12-21T18:18:36.073Z,95622.84
2018-12-21T18:21:06.849Z,95604.97
2018-12-21T18:23:40.782Z,95618.87
2018-12-21T18:26:10.798Z,95630.50
2018-12-21T18:28:40.945Z,95621.23
2018-12-21T18:31:25.064Z,95634.77
2018-12-21T18:33:58.017Z,95634.84
2018-12-21T18:36:33.692Z,95634.31
2018-12-21T18:39:04.805Z,95636.45
2018-12-21T18:41:34.947Z,95639.44
2018-12-21T18:47:06.477Z,95634.06
2018-12-21T18:49:40.687Z,95634.87
2018-12-21T18:52:11.111Z,95629.34
2018-12-21T18:54:42.331Z,95622.75
2018-12-21T18:57:16.308Z,95622.69
2018-12-21T18:59:49.110Z,95627.63
2018-12-21T19:02:20.886Z,95629.45
2018-12-21T19:04:55.296Z,95625.84
2018-12-21T19:07:28.028Z,95610.42
2018-12-21T19:09:59.005Z,95606.06
2018-12-21T19:12:29.027Z,95608.05
2018-12-21T19:14:59.977Z,95605.86
2018-12-21T19:17:30.898Z,95596.75
2018-12-21T19:20:01.138Z,95595.97
2018-12-21T19:22:32.036Z,95590.97
2018-12-21T19:28:03.092Z,95586.70
2018-12-21T19:30:34.775Z,95586.55
2018-12-21T19:33:05.546Z,95574.92
2018-12-21T19:35:38.204Z,95573.13
2018-12-21T19:38:11.421Z,95572.95
2018-12-21T19:40:45.107Z,95572.95
2018-12-21T19:43:16.241Z,95574.22
2018-12-21T19:45:47.182Z,95565.42
2018-12-21T19:48:20.184Z,95540.75
2018-12-21T19:50:51.127Z,95546.12
2018-12-21T19:53:22.258Z,95528.59
2018-12-21T19:55:58.508Z,95535.73
2018-12-21T19:58:29.375Z,95522.79
2018-12-21T20:01:00.366Z,95507.47
2018-12-21T20:03:31.211Z,95510.56
2018-12-21T20:06:01.465Z,95507.08
2018-12-21T20:08:33.322Z,95501.47
2018-12-21T20:11:04.611Z,95507.23
2018-12-21T20:13:40.367Z,95497.88
2018-12-21T20:16:11.664Z,95500.31
2018-12-21T20:18:44.273Z,95508.05
2018-12-21T20:21:15.332Z,95488.08
2018-12-21T20:24:04.895Z,95475.66
2018-12-21T20:26:35.742Z,95493.81
2018-12-21T20:29:08.428Z,95492.42
2018-12-21T20:31:41.493Z,95489.56
2018-12-21T20:34:15.678Z,95485.81
2018-12-21T20:36:49.273Z,95469.66
2018-12-21T20:39:22.509Z,95474.95
2018-12-21T20:41:56.742Z,95462.33
2018-12-21T20:44:26.799Z,95474.59
2018-12-21T20:46:59.136Z,95461.10
2018-12-21T20:49:31.694Z,95456.58
2018-12-21T20:52:01.756Z,95464.38
2018-12-21T20:54:39.283Z,95463.45
2018-12-21T20:57:12.913Z,95447.09
2018-12-21T20:59:44.156Z,95446.77
2018-12-21T21:02:20.758Z,95461.58
2018-12-21T21:04:59.724Z,95469.35
2018-12-21T21:07:33.437Z,95464.70
2018-12-21T21:10:05.495Z,95475.13
2018-12-21T21:12:35.511Z,95467.22
2018-12-21T21:15:07.384Z,95487.75
2018-12-21T21:17:39.644Z,95473.02
2018-12-21T21:20:13.028Z,95480.34
2018-12-21T21:22:44.608Z,95490.09
2018-12-21T21:25:16.773Z,95489.39
2018-12-21T21:27:47.621Z,95508.06
2018-12-21T21:30:19.453Z,95494.13
2018-12-21T21:32:49.615Z,95502.81
2018-12-21T21:35:19.712Z,95499.81
2018-12-21T21:37:49.722Z,95496.11
2018-12-21T21:43:24.160Z,95497.50
2018-12-21T21:45:55.768Z,95516.97
2018-12-21T21:48:25.769Z,95523.25
2018-12-21T21:50:59.505Z,95524.16
2018-12-21T21:53:48.998Z,95528.66
2018-12-21T21:56:21.725Z,95523.10
2018-12-21T21:58:52.849Z,95526.36
2018-12-21T22:01:23.837Z,95537.14
2018-12-21T22:03:57.629Z,95546.55
2018-12-21T22:06:27.697Z,95551.66
2018-12-21T22:08:59.194Z,95538.20
2018-12-21T22:11:29.834Z,95538.53
2018-12-21T22:14:00.882Z,95539.47
2018-12-21T22:16:33.805Z,95520.19
2018-12-21T22:19:04.917Z,95538.66
2018-12-21T22:21:35.887Z,95532.61
2018-12-21T22:24:09.661Z,95539.59
2018-12-21T22:26:41.203Z,95537.14
2018-12-21T22:29:19.980Z,95534.59
2018-12-21T22:31:52.965Z,95530.72
2018-12-21T22:34:30.533Z,95520.72
2018-12-21T22:37:00.998Z,95530.34
2018-12-21T22:39:31.135Z,95531.05
2018-12-21T22:42:01.362Z,95516.80
2018-12-21T22:44:32.114Z,95527.35
2018-12-21T22:47:09.820Z,95507.55
2018-12-21T22:49:42.019Z,95500.20
2018-12-21T22:52:12.981Z,95503.55
2018-12-21T22:54:47.499Z,95504.28
2018-12-21T22:57:20.084Z,95510.09
2018-12-21T22:59:51.153Z,95492.06
2018-12-21T23:02:22.964Z,95475.83
2018-12-21T23:04:58.984Z,95476.40
2018-12-21T23:07:29.005Z,95481.95
2018-12-21T23:09:59.988Z,95492.04
2018-12-21T23:12:30.124Z,95476.80
2018-12-21T23:15:04.591Z,95501.47
2018-12-21T23:17:35.474Z,95471.91
2018-12-21T23:20:06.495Z,95487.01
2018-12-21T23:22:37.106Z,95487.09
2018-12-21T23:25:07.582Z,95483.27
2018-12-21T23:27:40.949Z,95480.64
2018-12-21T23:30:12.409Z,95486.38
2018-12-21T23:32:43.131Z,95479.09
2018-12-21T23:35:13.173Z,95493.37
2018-12-21T23:37:44.198Z,95488.56
2018-12-21T23:40:15.408Z,95489.03
2018-12-21T23:42:48.295Z,95484.88
2018-12-21T23:45:21.225Z,95475.21
2018-12-21T23:47:52.561Z,95511.06
2018-12-21T23:50:25.317Z,95497.44
2018-12-21T23:52:56.230Z,95490.92
2018-12-21T23:55:27.253Z,95485.73
2018-12-21T23:58:00.233Z,95476.56
